sensor_id;sensor_type;location;lat;lon;timestamp;pressure;altitude;pressure_sealevel;temperature;humidity
5298;BME280;14738;42.668;23.250;2022-10-26T00:01:12;48394.28;;;-141.90;53.88
5298;BME280;14738;42.668;23.250;2022-10-26T00:03:38;48378.38;;;-141.90;53.48
5298;BME280;14738;42.668;23.250;2022-10-26T00:06:16;48382.34;;;-141.90;52.85
5298;BME280;14738;42.668;23.250;2022-10-26T00:08:42;48380.38;;;-141.90;52.98
5298;BME280;14738;42.668;23.250;2022-10-26T00:11:08;48404.19;;;-141.90;53.17
5298;BME280;14738;42.668;23.250;2022-10-26T00:13:34;48374.41;;;-141.90;54.45
5298;BME280;14738;42.668;23.250;2022-10-26T00:16:00;48374.41;;;-141.90;53.46
5298;BME280;14738;42.668;23.250;2022-10-26T00:18:26;48398.25;;;-141.90;54.06
5298;BME280;14738;42.668;23.250;2022-10-26T00:20:52;48386.34;;;-141.90;55.11
5298;BME280;14738;42.668;23.250;2022-10-26T00:23:17;48370.44;;;-141.90;54.18
5298;BME280;14738;42.668;23.250;2022-10-26T00:25:43;48390.31;;;-141.90;54.20
5298;BME280;14738;42.668;23.250;2022-10-26T00:28:08;48398.25;;;-141.90;55.11
5298;BME280;14738;42.668;23.250;2022-10-26T00:30:37;48354.56;;;-141.90;56.19
5298;BME280;14738;42.668;23.250;2022-10-26T00:33:03;48390.31;;;-141.90;58.83
5298;BME280;14738;42.668;23.250;2022-10-26T00:35:29;48406.19;;;-141.90;59.15
5298;BME280;14738;42.668;23.250;2022-10-26T00:37:55;48386.34;;;-141.90;57.35
5298;BME280;14738;42.668;23.250;2022-10-26T00:40:21;48390.31;;;-141.90;60.10
5298;BME280;14738;42.668;23.250;2022-10-26T00:42:46;48406.19;;;-141.90;59.26
5298;BME280;14738;42.668;23.250;2022-10-26T00:45:20;48398.25;;;-141.90;58.64
5298;BME280;14738;42.668;23.250;2022-10-26T00:50:25;48366.47;;;-141.90;59.94
5298;BME280;14738;42.668;23.250;2022-10-26T00:52:52;48354.56;;;-141.90;61.91
5298;BME280;14738;42.668;23.250;2022-10-26T00:55:21;48374.41;;;-141.90;61.41
5298;BME280;14738;42.668;23.250;2022-10-26T00:57:50;48390.31;;;-141.90;61.87
5298;BME280;14738;42.668;23.250;2022-10-26T01:00:16;48384.34;;;-141.90;62.27
5298;BME280;14738;42.668;23.250;2022-10-26T01:02:42;48374.41;;;-141.90;62.62
5298;BME280;14738;42.668;23.250;2022-10-26T01:05:10;48386.34;;;-141.90;65.77
5298;BME280;14738;42.668;23.250;2022-10-26T01:07:35;48382.34;;;-141.90;66.37
5298;BME280;14738;42.668;23.250;2022-10-26T01:10:01;48376.41;;;-141.90;65.35
5298;BME280;14738;42.668;23.250;2022-10-26T01:12:27;48384.34;;;-141.90;66.95
5298;BME280;14738;42.668;23.250;2022-10-26T01:14:53;48364.50;;;-141.90;68.40
5298;BME280;14738;42.668;23.250;2022-10-26T01:17:56;48366.47;;;-141.90;70.75
5298;BME280;14738;42.668;23.250;2022-10-26T01:26:45;48386.34;;;-141.90;65.69
5298;BME280;14738;42.668;23.250;2022-10-26T01:31:43;48358.53;;;-141.90;61.24
5298;BME280;14738;42.668;23.250;2022-10-26T01:34:27;48380.38;;;-141.90;60.15
5298;BME280;14738;42.668;23.250;2022-10-26T01:37:14;48384.34;;;-141.90;61.56
5298;BME280;14738;42.668;23.250;2022-10-26T01:40:00;48358.53;;;-141.90;61.53
5298;BME280;14738;42.668;23.250;2022-10-26T01:42:27;48366.47;;;-141.90;61.15
5298;BME280;14738;42.668;23.250;2022-10-26T01:44:58;48386.34;;;-141.90;60.62
5298;BME280;14738;42.668;23.250;2022-10-26T01:47:26;48360.53;;;-141.90;61.05
5298;BME280;14738;42.668;23.250;2022-10-26T01:49:55;48382.34;;;-141.90;60.47
5298;BME280;14738;42.668;23.250;2022-10-26T01:52:22;48384.34;;;-141.90;60.87
5298;BME280;14738;42.668;23.250;2022-10-26T01:54:48;48390.31;;;-141.90;60.86
5298;BME280;14738;42.668;23.250;2022-10-26T01:57:17;48396.25;;;-141.90;60.76
5298;BME280;14738;42.668;23.250;2022-10-26T02:00:09;48378.38;;;-141.90;60.90
5298;BME280;14738;42.668;23.250;2022-10-26T02:09:06;48380.38;;;-141.90;62.17
5298;BME280;14738;42.668;23.250;2022-10-26T02:11:40;48380.38;;;-141.90;62.73
5298;BME280;14738;42.668;23.250;2022-10-26T02:14:39;48362.50;;;-141.90;62.43
5298;BME280;14738;42.668;23.250;2022-10-26T02:19:51;48390.31;;;-141.90;65.24
5298;BME280;14738;42.668;23.250;2022-10-26T02:22:32;48378.38;;;-141.90;64.54
5298;BME280;14738;42.668;23.250;2022-10-26T02:25:04;48376.41;;;-141.90;62.88
5298;BME280;14738;42.668;23.250;2022-10-26T02:27:34;48370.44;;;-141.90;63.83
5298;BME280;14738;42.668;23.250;2022-10-26T02:30:03;48386.34;;;-141.90;63.39
5298;BME280;14738;42.668;23.250;2022-10-26T02:32:33;48386.34;;;-141.90;65.32
5298;BME280;14738;42.668;23.250;2022-10-26T02:35:01;48364.50;;;-141.90;65.02
5298;BME280;14738;42.668;23.250;2022-10-26T02:37:28;48388.31;;;-141.90;68.57
5298;BME280;14738;42.668;23.250;2022-10-26T02:39:54;48394.28;;;-141.90;70.72
5298;BME280;14738;42.668;23.250;2022-10-26T02:42:23;48362.50;;;-141.90;68.48
5298;BME280;14738;42.668;23.250;2022-10-26T02:44:53;48358.53;;;-141.90;70.23
5298;BME280;14738;42.668;23.250;2022-10-26T02:47:23;48388.31;;;-141.90;69.11
5298;BME280;14738;42.668;23.250;2022-10-26T02:49:49;48394.28;;;-141.90;72.29
5298;BME280;14738;42.668;23.250;2022-10-26T02:52:27;48384.34;;;-141.90;70.92
5298;BME280;14738;42.668;23.250;2022-10-26T02:57:40;48378.38;;;-141.90;71.62
5298;BME280;14738;42.668;23.250;2022-10-26T03:00:08;48384.34;;;-141.90;71.70
5298;BME280;14738;42.668;23.250;2022-10-26T03:02:35;48390.31;;;-141.90;71.71
5298;BME280;14738;42.668;23.250;2022-10-26T03:05:28;48380.38;;;-141.90;75.17
5298;BME280;14738;42.668;23.250;2022-10-26T03:07:55;48360.53;;;-141.90;76.00
5298;BME280;14738;42.668;23.250;2022-10-26T03:10:21;48378.38;;;-141.90;79.11
5298;BME280;14738;42.668;23.250;2022-10-26T03:12:47;48370.44;;;-141.90;78.99
5298;BME280;14738;42.668;23.250;2022-10-26T03:15:12;48378.38;;;-141.90;76.78
5298;BME280;14738;42.668;23.250;2022-10-26T03:17:38;48342.66;;;-141.90;83.10
5298;BME280;14738;42.668;23.250;2022-10-26T03:20:04;48394.28;;;-141.90;84.82
5298;BME280;14738;42.668;23.250;2022-10-26T03:22:29;48356.56;;;-141.90;84.21
5298;BME280;14738;42.668;23.250;2022-10-26T03:24:55;48374.41;;;-141.90;82.02
5298;BME280;14738;42.668;23.250;2022-10-26T03:27:20;48348.63;;;-141.90;91.18
5298;BME280;14738;42.668;23.250;2022-10-26T03:29:46;48372.44;;;-141.90;93.69
5298;BME280;14738;42.668;23.250;2022-10-26T03:32:11;48362.50;;;-141.90;95.93
5298;BME280;14738;42.668;23.250;2022-10-26T03:34:36;48382.34;;;-141.90;96.98
5298;BME280;14738;42.668;23.250;2022-10-26T03:37:02;48368.47;;;-141.90;100.00
5298;BME280;14738;42.668;23.250;2022-10-26T03:39:27;48378.38;;;-141.90;96.85
5298;BME280;14738;42.668;23.250;2022-10-26T03:41:53;48386.34;;;-141.90;88.79
5298;BME280;14738;42.668;23.250;2022-10-26T03:44:19;48374.41;;;-141.90;92.07
5298;BME280;14738;42.668;23.250;2022-10-26T03:46:45;48370.44;;;-141.90;100.00
5298;BME280;14738;42.668;23.250;2022-10-26T03:49:10;48390.31;;;-141.90;100.00
5298;BME280;14738;42.668;23.250;2022-10-26T03:51:35;48354.56;;;-141.90;100.00
5298;BME280;14738;42.668;23.250;2022-10-26T03:54:01;48392.28;;;-141.90;100.00
5298;BME280;14738;42.668;23.250;2022-10-26T03:56:26;48378.38;;;-141.90;100.00
5298;BME280;14738;42.668;23.250;2022-10-26T03:58:52;48404.19;;;-141.90;100.00
5298;BME280;14738;42.668;23.250;2022-10-26T04:01:17;48406.19;;;-141.90;100.00
5298;BME280;14738;42.668;23.250;2022-10-26T04:03:42;48376.41;;;-141.90;100.00
5298;BME280;14738;42.668;23.250;2022-10-26T04:06:08;48380.38;;;-141.90;100.00
5298;BME280;14738;42.668;23.250;2022-10-26T04:08:33;48394.28;;;-141.90;100.00
5298;BME280;14738;42.668;23.250;2022-10-26T04:10:59;48398.25;;;-141.90;100.00
5298;BME280;14738;42.668;23.250;2022-10-26T04:13:24;48398.25;;;-141.90;100.00
5298;BME280;14738;42.668;23.250;2022-10-26T04:15:49;48386.34;;;-141.90;100.00
5298;BME280;14738;42.668;23.250;2022-10-26T04:18:15;48384.34;;;-141.90;100.00
5298;BME280;14738;42.668;23.250;2022-10-26T04:20:40;48392.28;;;-141.90;100.00
5298;BME280;14738;42.668;23.250;2022-10-26T04:23:09;48402.22;;;-141.90;100.00
5298;BME280;14738;42.668;23.250;2022-10-26T04:25:35;48420.09;;;-141.90;100.00
5298;BME280;14738;42.668;23.250;2022-10-26T04:28:03;48366.47;;;-141.90;100.00
5298;BME280;14738;42.668;23.250;2022-10-26T04:30:29;48420.09;;;-141.90;100.00
5298;BME280;14738;42.668;23.250;2022-10-26T04:32:54;48386.34;;;-141.90;100.00
5298;BME280;14738;42.668;23.250;2022-10-26T04:35:20;48394.28;;;-141.90;100.00
5298;BME280;14738;42.668;23.250;2022-10-26T04:37:45;48414.13;;;-141.90;100.00
5298;BME280;14738;42.668;23.250;2022-10-26T04:40:11;48376.41;;;-141.90;100.00
5298;BME280;14738;42.668;23.250;2022-10-26T04:42:44;48392.28;;;-141.90;100.00
5298;BME280;14738;42.668;23.250;2022-10-26T04:45:10;48392.28;;;-141.90;100.00
5298;BME280;14738;42.668;23.250;2022-10-26T04:47:36;48404.19;;;-141.90;100.00
5298;BME280;14738;42.668;23.250;2022-10-26T04:50:03;48418.09;;;-141.90;100.00
5298;BME280;14738;42.668;23.250;2022-10-26T04:52:28;48354.56;;;-141.90;100.00
5298;BME280;14738;42.668;23.250;2022-10-26T04:54:54;48418.09;;;-141.90;100.00
5298;BME280;14738;42.668;23.250;2022-10-26T04:57:19;48402.22;;;-141.90;100.00
5298;BME280;14738;42.668;23.250;2022-10-26T04:59:44;48366.47;;;-141.90;100.00
5298;BME280;14738;42.668;23.250;2022-10-26T05:02:10;48404.19;;;-141.90;100.00
5298;BME280;14738;42.668;23.250;2022-10-26T05:04:35;48422.06;;;-141.90;100.00
5298;BME280;14738;42.668;23.250;2022-10-26T05:07:00;48356.56;;;-141.90;100.00
5298;BME280;14738;42.668;23.250;2022-10-26T05:09:26;48398.25;;;-141.90;100.00
5298;BME280;14738;42.668;23.250;2022-10-26T05:11:51;48374.41;;;-141.90;100.00
5298;BME280;14738;42.668;23.250;2022-10-26T05:14:17;48410.16;;;-141.90;100.00
5298;BME280;14738;42.668;23.250;2022-10-26T05:16:42;48394.28;;;-141.90;100.00
5298;BME280;14738;42.668;23.250;2022-10-26T05:19:09;48374.41;;;-141.90;100.00
5298;BME280;14738;42.668;23.250;2022-10-26T05:21:34;48388.31;;;-141.90;100.00
5298;BME280;14738;42.668;23.250;2022-10-26T05:24:00;48404.19;;;-141.90;100.00
5298;BME280;14738;42.668;23.250;2022-10-26T05:26:26;48398.25;;;-141.90;100.00
5298;BME280;14738;42.668;23.250;2022-10-26T05:28:51;48435.97;;;-141.90;100.00
5298;BME280;14738;42.668;23.250;2022-10-26T05:31:17;48424.06;;;-141.90;100.00
5298;BME280;14738;42.668;23.250;2022-10-26T05:33:43;48406.19;;;-141.90;100.00
5298;BME280;14738;42.668;23.250;2022-10-26T05:36:08;48400.22;;;-141.90;100.00
5298;BME280;14738;42.668;23.250;2022-10-26T05:38:34;48420.09;;;-141.90;100.00
5298;BME280;14738;42.668;23.250;2022-10-26T05:40:59;48418.09;;;-141.90;100.00
5298;BME280;14738;42.668;23.250;2022-10-26T05:43:26;48426.03;;;-141.90;100.00
5298;BME280;14738;42.668;23.250;2022-10-26T05:45:52;48418.09;;;-141.90;100.00
5298;BME280;14738;42.668;23.250;2022-10-26T05:48:18;48418.09;;;-141.90;100.00
5298;BME280;14738;42.668;23.250;2022-10-26T05:50:44;48424.06;;;-141.90;100.00
5298;BME280;14738;42.668;23.250;2022-10-26T05:53:10;48473.69;;;-141.90;100.00
5298;BME280;14738;42.668;23.250;2022-10-26T05:55:35;48449.84;;;-141.90;100.00
5298;BME280;14738;42.668;23.250;2022-10-26T05:58:01;48445.88;;;-141.90;43.98
5298;BME280;14738;42.668;23.250;2022-10-26T06:00:28;48441.91;;;-141.90;42.90
5298;BME280;14738;42.668;23.250;2022-10-26T06:03:20;48471.69;;;-141.90;42.17
5298;BME280;14738;42.668;23.250;2022-10-26T06:05:54;48477.66;;;-141.90;41.11
5298;BME280;14738;42.668;23.250;2022-10-26T06:08:22;48463.75;;;-141.90;41.34
5298;BME280;14738;42.668;23.250;2022-10-26T06:10:49;48475.66;;;-141.90;42.75
5298;BME280;14738;42.668;23.250;2022-10-26T06:13:15;48465.75;;;-141.90;42.01
5298;BME280;14738;42.668;23.250;2022-10-26T06:18:41;48437.94;;;-141.90;42.16
5298;BME280;14738;42.668;23.250;2022-10-26T06:23:54;48439.94;;;-141.90;41.36
5298;BME280;14738;42.668;23.250;2022-10-26T06:29:17;48451.84;;;-141.90;41.46
5298;BME280;14738;42.668;23.250;2022-10-26T06:31:46;48457.81;;;-141.90;41.05
5298;BME280;14738;42.668;23.250;2022-10-26T06:34:21;48449.84;;;-141.90;40.97
5298;BME280;14738;42.668;23.250;2022-10-26T06:36:48;48469.72;;;-141.90;41.21
5298;BME280;14738;42.668;23.250;2022-10-26T06:39:15;48477.66;;;-141.90;41.18
5298;BME280;14738;42.668;23.250;2022-10-26T06:41:41;48447.88;;;-141.90;41.35
5298;BME280;14738;42.668;23.250;2022-10-26T06:44:08;48461.78;;;-141.90;40.98
5298;BME280;14738;42.668;23.250;2022-10-26T06:54:52;48445.88;;;-141.90;41.51
5298;BME280;14738;42.668;23.250;2022-10-26T06:57:23;48473.69;;;-141.90;40.87
5298;BME280;14738;42.668;23.250;2022-10-26T07:00:04;48459.78;;;-141.90;41.04
5298;BME280;14738;42.668;23.250;2022-10-26T07:02:30;48465.75;;;-141.90;40.79
5298;BME280;14738;42.668;23.250;2022-10-26T07:04:55;48459.78;;;-141.90;40.83
5298;BME280;14738;42.668;23.250;2022-10-26T07:07:26;48457.81;;;-141.90;41.03
5298;BME280;14738;42.668;23.250;2022-10-26T07:09:53;48441.91;;;-141.90;41.02
5298;BME280;14738;42.668;23.250;2022-10-26T07:12:18;48441.91;;;-141.90;40.96
5298;BME280;14738;42.668;23.250;2022-10-26T07:14:44;48453.81;;;-141.90;41.20
5298;BME280;14738;42.668;23.250;2022-10-26T07:17:10;48457.81;;;-141.90;41.52
5298;BME280;14738;42.668;23.250;2022-10-26T07:19:36;48481.63;;;-141.90;41.19
5298;BME280;14738;42.668;23.250;2022-10-26T07:22:01;48467.72;;;-141.90;40.96
5298;BME280;14738;42.668;23.250;2022-10-26T07:24:27;48447.88;;;-141.90;41.44
5298;BME280;14738;42.668;23.250;2022-10-26T07:26:54;48437.94;;;-141.90;41.92
5298;BME280;14738;42.668;23.250;2022-10-26T07:29:24;48461.78;;;-141.90;41.88
5298;BME280;14738;42.668;23.250;2022-10-26T07:31:50;48465.75;;;-141.90;41.17
5298;BME280;14738;42.668;23.250;2022-10-26T07:34:15;48473.69;;;-141.90;40.82
5298;BME280;14738;42.668;23.250;2022-10-26T07:36:41;48459.78;;;-141.90;41.69
5298;BME280;14738;42.668;23.250;2022-10-26T07:39:07;48473.69;;;-141.90;41.61
5298;BME280;14738;42.668;23.250;2022-10-26T07:41:32;48461.78;;;-141.90;41.86
5298;BME280;14738;42.668;23.250;2022-10-26T07:43:58;48445.88;;;-141.90;42.61
5298;BME280;14738;42.668;23.250;2022-10-26T07:46:24;48422.06;;;-141.90;43.56
5298;BME280;14738;42.668;23.250;2022-10-26T07:48:51;48428.03;;;-141.90;42.60
5298;BME280;14738;42.668;23.250;2022-10-26T07:51:17;48465.75;;;-141.90;41.47
5298;BME280;14738;42.668;23.250;2022-10-26T07:53:42;48473.69;;;-141.90;41.45
5298;BME280;14738;42.668;23.250;2022-10-26T07:56:09;48475.66;;;-141.90;41.72
5298;BME280;14738;42.668;23.250;2022-10-26T07:58:34;48477.66;;;-141.90;41.36
5298;BME280;14738;42.668;23.250;2022-10-26T08:01:12;48473.69;;;-141.90;41.77
5298;BME280;14738;42.668;23.250;2022-10-26T08:03:39;48471.69;;;-141.90;40.79
5298;BME280;14738;42.668;23.250;2022-10-26T08:06:04;48459.78;;;-141.90;41.42
5298;BME280;14738;42.668;23.250;2022-10-26T08:08:31;48441.91;;;-141.90;40.94
5298;BME280;14738;42.668;23.250;2022-10-26T08:10:57;48465.75;;;-141.90;40.56
5298;BME280;14738;42.668;23.250;2022-10-26T08:13:23;48469.72;;;-141.90;39.59
5298;BME280;14738;42.668;23.250;2022-10-26T08:15:48;48477.66;;;-141.90;40.49
5298;BME280;14738;42.668;23.250;2022-10-26T08:18:14;48491.56;;;-141.90;39.65
5298;BME280;14738;42.668;23.250;2022-10-26T08:20:39;48420.09;;;-141.90;39.24
5298;BME280;14738;42.668;23.250;2022-10-26T08:23:05;48489.56;;;-141.90;39.77
5298;BME280;14738;42.668;23.250;2022-10-26T08:25:33;48479.63;;;-141.90;40.04
5298;BME280;14738;42.668;23.250;2022-10-26T08:28:00;48461.78;;;-141.90;39.19
5298;BME280;14738;42.668;23.250;2022-10-26T08:30:26;48491.56;;;-141.90;39.39
5298;BME280;14738;42.668;23.250;2022-10-26T08:33:03;48469.72;;;-141.90;38.90
5298;BME280;14738;42.668;23.250;2022-10-26T08:35:29;48485.59;;;-141.90;38.75
5298;BME280;14738;42.668;23.250;2022-10-26T08:37:55;48489.56;;;-141.90;37.91
5298;BME280;14738;42.668;23.250;2022-10-26T08:40:31;48497.50;;;-141.90;39.02
5298;BME280;14738;42.668;23.250;2022-10-26T08:43:03;48485.59;;;-141.90;38.95
5298;BME280;14738;42.668;23.250;2022-10-26T08:45:35;48485.59;;;-141.90;38.66
5298;BME280;14738;42.668;23.250;2022-10-26T08:48:25;48493.53;;;-141.90;38.00
5298;BME280;14738;42.668;23.250;2022-10-26T08:50:56;48465.75;;;-141.90;37.53
5298;BME280;14738;42.668;23.250;2022-10-26T08:53:36;48493.53;;;-141.90;37.91
5298;BME280;14738;42.668;23.250;2022-10-26T08:56:20;48493.53;;;-141.90;36.38
5298;BME280;14738;42.668;23.250;2022-10-26T08:58:57;48525.31;;;-141.90;37.33
5298;BME280;14738;42.668;23.250;2022-10-26T09:01:23;48549.13;;;-141.90;36.66
5298;BME280;14738;42.668;23.250;2022-10-26T09:03:49;48517.34;;;-141.90;36.41
5298;BME280;14738;42.668;23.250;2022-10-26T09:06:27;48465.75;;;-141.90;36.64
5298;BME280;14738;42.668;23.250;2022-10-26T09:24:55;48525.31;;;-141.90;35.65
5298;BME280;14738;42.668;23.250;2022-10-26T09:27:29;48523.31;;;-141.90;35.45
5298;BME280;14738;42.668;23.250;2022-10-26T09:29:59;48493.53;;;-141.90;35.71
5298;BME280;14738;42.668;23.250;2022-10-26T09:32:30;48547.13;;;-141.90;35.41
5298;BME280;14738;42.668;23.250;2022-10-26T09:35:03;48517.34;;;-141.90;34.94
5298;BME280;14738;42.668;23.250;2022-10-26T09:37:39;48533.25;;;-141.90;34.78
5298;BME280;14738;42.668;23.250;2022-10-26T09:40:28;48525.31;;;-141.90;34.46
5298;BME280;14738;42.668;23.250;2022-10-26T09:43:09;48477.66;;;-141.90;34.56
5298;BME280;14738;42.668;23.250;2022-10-26T09:45:40;48505.44;;;-141.90;34.81
5298;BME280;14738;42.668;23.250;2022-10-26T09:48:19;48533.25;;;-141.90;34.31
5298;BME280;14738;42.668;23.250;2022-10-26T09:50:49;48531.25;;;-141.90;34.77
5298;BME280;14738;42.668;23.250;2022-10-26T09:53:15;48531.25;;;-141.90;34.75
5298;BME280;14738;42.668;23.250;2022-10-26T09:55:48;48533.25;;;-141.90;34.99
5298;BME280;14738;42.668;23.250;2022-10-26T09:58:22;48537.22;;;-141.90;34.09
5298;BME280;14738;42.668;23.250;2022-10-26T10:00:50;48495.53;;;-141.90;35.00
5298;BME280;14738;42.668;23.250;2022-10-26T10:05:45;48529.28;;;-141.90;34.57
5298;BME280;14738;42.668;23.250;2022-10-26T10:11:07;48499.50;;;-141.90;35.17
5298;BME280;14738;42.668;23.250;2022-10-26T10:13:36;48507.44;;;-141.90;34.73
5298;BME280;14738;42.668;23.250;2022-10-26T10:18:39;48497.50;;;-141.90;33.96
5298;BME280;14738;42.668;23.250;2022-10-26T10:21:06;48525.31;;;-141.90;34.28
5298;BME280;14738;42.668;23.250;2022-10-26T10:23:34;48513.38;;;-141.90;34.03
5298;BME280;14738;42.668;23.250;2022-10-26T10:26:06;48513.38;;;-141.90;34.00
5298;BME280;14738;42.668;23.250;2022-10-26T10:28:32;48533.25;;;-141.90;33.71
5298;BME280;14738;42.668;23.250;2022-10-26T10:31:04;48519.34;;;-141.90;33.84
5298;BME280;14738;42.668;23.250;2022-10-26T10:33:35;48527.28;;;-141.90;33.68
5298;BME280;14738;42.668;23.250;2022-10-26T10:36:03;48517.34;;;-141.90;33.13
5298;BME280;14738;42.668;23.250;2022-10-26T10:38:36;48533.25;;;-141.90;33.70
5298;BME280;14738;42.668;23.250;2022-10-26T10:41:03;48513.38;;;-141.90;34.12
5298;BME280;14738;42.668;23.250;2022-10-26T10:43:29;48531.25;;;-141.90;33.20
5298;BME280;14738;42.668;23.250;2022-10-26T10:45:56;48491.56;;;-141.90;33.41
5298;BME280;14738;42.668;23.250;2022-10-26T10:48:28;48487.56;;;-141.90;33.28
5298;BME280;14738;42.668;23.250;2022-10-26T10:50:57;48521.34;;;-141.90;33.60
5298;BME280;14738;42.668;23.250;2022-10-26T10:53:47;48517.34;;;-141.90;33.74
5298;BME280;14738;42.668;23.250;2022-10-26T11:07:23;48529.28;;;-141.90;32.90
5298;BME280;14738;42.668;23.250;2022-10-26T11:09:51;48481.63;;;-141.90;31.97
5298;BME280;14738;42.668;23.250;2022-10-26T11:12:27;48521.34;;;-141.90;31.91
5298;BME280;14738;42.668;23.250;2022-10-26T11:15:02;48511.41;;;-141.90;30.93
5298;BME280;14738;42.668;23.250;2022-10-26T11:17:44;48537.22;;;-141.90;31.07
5298;BME280;14738;42.668;23.250;2022-10-26T11:20:17;48525.31;;;-141.90;31.20
5298;BME280;14738;42.668;23.250;2022-10-26T11:25:34;48549.13;;;-141.90;30.26
5298;BME280;14738;42.668;23.250;2022-10-26T11:28:18;48527.28;;;-141.90;29.31
5298;BME280;14738;42.668;23.250;2022-10-26T11:30:51;48489.56;;;-141.90;30.19
5298;BME280;14738;42.668;23.250;2022-10-26T11:33:31;48531.25;;;-141.90;30.08
5298;BME280;14738;42.668;23.250;2022-10-26T11:36:16;48529.28;;;-141.90;30.09
5298;BME280;14738;42.668;23.250;2022-10-26T11:41:32;48529.28;;;-141.90;29.74
5298;BME280;14738;42.668;23.250;2022-10-26T11:46:52;48533.25;;;-141.90;28.80
5298;BME280;14738;42.668;23.250;2022-10-26T11:49:33;48525.31;;;-141.90;29.52
5298;BME280;14738;42.668;23.250;2022-10-26T11:52:38;48533.25;;;-141.90;29.36
5298;BME280;14738;42.668;23.250;2022-10-26T11:55:07;48519.34;;;-141.90;28.90
5298;BME280;14738;42.668;23.250;2022-10-26T11:57:35;48501.47;;;-141.90;29.28
5298;BME280;14738;42.668;23.250;2022-10-26T12:00:14;48529.28;;;-141.90;28.29
5298;BME280;14738;42.668;23.250;2022-10-26T12:02:47;48509.41;;;-141.90;28.86
5298;BME280;14738;42.668;23.250;2022-10-26T12:07:52;48509.41;;;-141.90;28.88
5298;BME280;14738;42.668;23.250;2022-10-26T12:10:31;48497.50;;;-141.90;28.45
5298;BME280;14738;42.668;23.250;2022-10-26T12:13:25;48521.34;;;-141.90;29.30
5298;BME280;14738;42.668;23.250;2022-10-26T12:16:18;48535.22;;;-141.90;29.06
5298;BME280;14738;42.668;23.250;2022-10-26T12:18:45;48487.56;;;-141.90;29.26
5298;BME280;14738;42.668;23.250;2022-10-26T12:21:12;48495.53;;;-141.90;29.59
5298;BME280;14738;42.668;23.250;2022-10-26T12:23:59;48509.41;;;-141.90;28.61
5298;BME280;14738;42.668;23.250;2022-10-26T12:34:22;48507.44;;;-141.90;28.93
5298;BME280;14738;42.668;23.250;2022-10-26T12:39:36;48521.34;;;-141.90;28.55
5298;BME280;14738;42.668;23.250;2022-10-26T12:45:00;48509.41;;;-141.90;29.27
5298;BME280;14738;42.668;23.250;2022-10-26T12:52:44;48513.38;;;-141.90;28.04
5298;BME280;14738;42.668;23.250;2022-10-26T12:57:49;48493.53;;;-141.90;26.81
5298;BME280;14738;42.668;23.250;2022-10-26T13:00:25;48519.34;;;-141.90;26.39
5298;BME280;14738;42.668;23.250;2022-10-26T13:09:07;48493.53;;;-141.90;25.83
5298;BME280;14738;42.668;23.250;2022-10-26T13:11:36;48481.63;;;-141.90;26.50
5298;BME280;14738;42.668;23.250;2022-10-26T13:14:17;48467.72;;;-141.90;26.12
5298;BME280;14738;42.668;23.250;2022-10-26T13:16:45;48499.50;;;-141.90;25.83
5298;BME280;14738;42.668;23.250;2022-10-26T13:19:43;48489.56;;;-141.90;26.20
5298;BME280;14738;42.668;23.250;2022-10-26T13:22:13;48493.53;;;-141.90;25.98
5298;BME280;14738;42.668;23.250;2022-10-26T13:24:46;48489.56;;;-141.90;25.73
5298;BME280;14738;42.668;23.250;2022-10-26T13:32:49;48477.66;;;-141.90;25.62
5298;BME280;14738;42.668;23.250;2022-10-26T13:35:18;48491.56;;;-141.90;26.06
5298;BME280;14738;42.668;23.250;2022-10-26T13:37:47;48499.50;;;-141.90;26.10
5298;BME280;14738;42.668;23.250;2022-10-26T13:40:20;48469.72;;;-141.90;25.97
5298;BME280;14738;42.668;23.250;2022-10-26T13:42:49;48481.63;;;-141.90;25.40
5298;BME280;14738;42.668;23.250;2022-10-26T13:48:00;48467.72;;;-141.90;26.18
5298;BME280;14738;42.668;23.250;2022-10-26T13:50:38;48477.66;;;-141.90;25.38
5298;BME280;14738;42.668;23.250;2022-10-26T13:53:08;48457.81;;;-141.90;25.67
5298;BME280;14738;42.668;23.250;2022-10-26T13:55:49;48443.91;;;-141.90;26.13
5298;BME280;14738;42.668;23.250;2022-10-26T13:58:28;48467.72;;;-141.90;26.08
5298;BME280;14738;42.668;23.250;2022-10-26T14:01:00;48463.75;;;-141.90;26.09
5298;BME280;14738;42.668;23.250;2022-10-26T14:03:26;48445.88;;;-141.90;26.55
5298;BME280;14738;42.668;23.250;2022-10-26T14:05:51;48493.53;;;-141.90;26.38
5298;BME280;14738;42.668;23.250;2022-10-26T14:08:18;48467.72;;;-141.90;26.30
5298;BME280;14738;42.668;23.250;2022-10-26T14:10:51;48422.06;;;-141.90;27.56
5298;BME280;14738;42.668;23.250;2022-10-26T14:13:21;48459.78;;;-141.90;27.57
5298;BME280;14738;42.668;23.250;2022-10-26T14:15:47;48447.88;;;-141.90;27.67
5298;BME280;14738;42.668;23.250;2022-10-26T14:18:17;48449.84;;;-141.90;27.31
5298;BME280;14738;42.668;23.250;2022-10-26T14:20:49;48477.66;;;-141.90;27.91
5298;BME280;14738;42.668;23.250;2022-10-26T14:23:32;48437.94;;;-141.90;28.38
5298;BME280;14738;42.668;23.250;2022-10-26T14:25:58;48463.75;;;-141.90;29.25
5298;BME280;14738;42.668;23.250;2022-10-26T14:28:29;48437.94;;;-141.90;29.23
5298;BME280;14738;42.668;23.250;2022-10-26T14:31:32;48428.03;;;-141.90;29.51
5298;BME280;14738;42.668;23.250;2022-10-26T14:33:59;48430.00;;;-141.90;29.53
5298;BME280;14738;42.668;23.250;2022-10-26T14:36:33;48443.91;;;-141.90;29.52
5298;BME280;14738;42.668;23.250;2022-10-26T14:39:28;48441.91;;;-141.90;30.04
5298;BME280;14738;42.668;23.250;2022-10-26T14:41:51;48432.00;;;-141.90;30.12
5298;BME280;14738;42.668;23.250;2022-10-26T14:44:21;48461.78;;;-141.90;30.24
5298;BME280;14738;42.668;23.250;2022-10-26T14:46:47;48432.00;;;-141.90;29.98
5298;BME280;14738;42.668;23.250;2022-10-26T14:49:25;48451.84;;;-141.90;30.39
5298;BME280;14738;42.668;23.250;2022-10-26T14:51:58;48433.97;;;-141.90;30.26
5298;BME280;14738;42.668;23.250;2022-10-26T14:54:27;48449.84;;;-141.90;30.45